Вытегра

Карта отелей и гостиниц, располагающихся рядом с аэропортом Вытегра :

Вытегра Вологодская область 61° 1' 54.9804" N, 36° 26' 16.6884" E
Вытегра Вологодская область 61° 1' 54.9804" N, 36° 26' 16.6884" E
Код аэродрома ИКАО
ULWR
Код аэродрома RU
УЛВР
Координаты
N61.03194° E036.43797°
Превышение над уровнем моря
67
Основная полоса
10/28
Курс магнитный
097,1/277,1
Длина основной ВПП
1349
Ширина основной ВПП
34
Покрытие основной ВПП
Твёрдое (асфальтобетон)
Освещение ВПП
Нет
Тип: 
Аэродром
Класс аэродрома: 
Принадлежность: 
АОН
Статус: 
Действующий
Сайт: 
E-mail аэродрома: 
avtg@arcsar.ru
Страна: 
Россия
Регион: 
Вологодская область
Город: 
Дополнительная информация: 
Владелец ПП: ФГКУ "АСУНЦ "Вытегра". Параллельная ГВПП (650x45м) не поддерживается. Ранее была ДПРС: 580-УЛ/ЦЗ. АД был построен еще до начала ВОВ и принимал участие в боевых действиях. Ныне в статусе посадочной площадки, АНППП которой зарегистрирован в СЗМТУ Росавиации 10.07.2017г. за №СЗП3-518.

Найти трансфер

С помощью этой формы Вы можете найти трансфер из аэропорта Вытегра в город, аэропорт или вокзал:

Карта места

Javascript is required to view this map.

Погода в аэропортах:

Авиационная погода в Москве - Остафьево

Погода METAR: 
UUMO 241700Z 32006MPS 9000 -SHSN BKN058CB 01/M01 Q1021 RESHSN R25/290050 NOSIG RMK QFE750/1001
Время наблюдения
2021-10-24T17:00:00Z
Температура C
1.0
Точка росы
-1.0
Направление ветра
320
Скорость ветра (узлы)
12
Метео видимость
5.59
Явления погоды
-SHSN
Условия полета
VFR
Аэропорт подробнее: 

Авиационная погода в Вардё

Регион: 
Погода METAR: 
ENSS 241650Z 34006KT 9999 VCSH SCT030 M01/M06 Q1013 RMK WIND 500FT 36014KT
Время наблюдения
2021-10-24T16:50:00Z
Температура C
-1.0
Точка росы
-6.0
Направление ветра
340
Скорость ветра (узлы)
6
Метео видимость
6.21
Явления погоды
VCSH
Условия полета
VFR

Авиационная погода в Берлевоге

Регион: 
Погода METAR: 
ENBV 221920Z 01015KT 9999 VCSH FEW008 SCT030 BKN045 00/M06 Q1000
Время наблюдения
2021-10-22T19:20:00Z
Температура C
0.0
Точка росы
-6.0
Направление ветра
10
Скорость ветра (узлы)
15
Метео видимость
6.21
Явления погоды
VCSH
Условия полета
VFR

Авиационная погода в Якутске

Регион: 
Погода METAR: 
UEEE 241700Z 22002MPS 9999 -SHSN SCT040CB 00/M01 Q1003 R23L/150156 NOSIG RMK QFE743
Время наблюдения
2021-10-24T17:00:00Z
Температура C
0.0
Точка росы
-1.0
Направление ветра
220
Скорость ветра (узлы)
4
Метео видимость
6.21
Явления погоды
-SHSN
Условия полета
VFR
Аэропорт подробнее: